Arenas Valley, New Mexico
Current Conditions -  °F | °C
As of 5:35 PM on Wednesday 22 Oct 2014 (Local Time) from KSVC Reporting Station
Clear Clear  
Wind Chill: 70°   Ceiling: Unl
Heat Index: 70°   Visibility: 10mi
Dew Point: 46°   Wind: 7mph
Humidity: 43%   Direction: 190°S
Pressure: 30.17"   Gusts: NA
Location:  32.79°N, 108.18°W
Report Text: KSVC 222335Z AUTO 19006KT 10SM CLR 21/08 A3017 RMK AO2
Loading
Personal Weather Stations






























Interactive Weather Map
Tropical Storm Tracking
New forecast layout! Learn more

10-Day Weather Forecast

Advertisements
Track Severe Weather on mobile